Time;durP1;ratioP1;P1;durP2;ratioP2;P2;SDS_P1;SDS_P2;PMS_P1;PMS_P2;Temp;Humidity;BMP_temperature;BMP_pressure;BME280_temperature;BME280_humidity;BME280_pressure;Samples;Min_cycle;Max_cycle;Signal;HPM_P1;HPM_P2
2021/03/05 00:01:09;;;;;;;19.07;8.60;;;8.10;93.70;;;;;;5049108;28;20422;-71
2021/03/05 00:03:35;;;;;;;20.57;9.80;;;8.20;93.70;;;;;;5044780;28;20184;-71
2021/03/05 00:06:00;;;;;;;24.40;11.20;;;8.20;93.80;;;;;;5033458;28;20258;-72
2021/03/05 00:08:26;;;;;;;24.53;12.53;;;8.20;93.00;;;;;;5034070;28;20679;-71
2021/03/05 00:10:52;;;;;;;24.20;11.70;;;8.10;92.60;;;;;;5033932;28;20649;-71
2021/03/05 00:13:22;;;;;;;27.47;13.90;;;8.00;92.10;;;;;;5037121;28;20212;-73
2021/03/05 00:15:48;;;;;;;27.60;13.07;;;7.80;92.00;;;;;;5043585;28;20510;-71
2021/03/05 00:18:14;;;;;;;22.77;11.37;;;7.60;92.30;;;;;;5042795;28;20447;-71
2021/03/05 00:20:43;;;;;;;22.67;11.50;;;7.20;91.70;;;;;;5042654;28;20470;-70
2021/03/05 00:23:09;;;;;;;24.20;11.50;;;7.10;92.30;;;;;;5034411;28;20444;-70
2021/03/05 00:25:35;;;;;;;25.73;12.57;;;7.10;91.90;;;;;;5042572;28;21025;-71
2021/03/05 00:28:01;;;;;;;24.17;12.27;;;6.90;91.80;;;;;;5039944;28;20247;-72
2021/03/05 00:30:27;;;;;;;29.23;14.20;;;6.90;91.40;;;;;;5042713;28;20481;-71
2021/03/05 00:32:53;;;;;;;34.80;15.70;;;6.90;91.20;;;;;;5047879;28;20443;-71
2021/03/05 00:35:20;;;;;;;38.80;14.23;;;6.60;91.10;;;;;;5045268;28;20426;-71
2021/03/05 00:37:46;;;;;;;35.80;17.10;;;6.40;91.60;;;;;;5049740;28;20438;-72
2021/03/05 00:40:15;;;;;;;38.13;17.47;;;6.30;92.20;;;;;;5030788;28;20538;-71
2021/03/05 00:42:43;;;;;;;40.63;17.50;;;6.30;92.70;;;;;;5033547;28;20443;-71
2021/03/05 00:45:10;;;;;;;38.17;17.73;;;6.20;92.80;;;;;;5034777;28;20412;-71
2021/03/05 00:47:36;;;;;;;42.33;18.47;;;6.10;93.10;;;;;;5049876;28;20512;-71
2021/03/05 00:50:04;;;;;;;45.90;18.90;;;6.10;93.50;;;;;;5035350;28;20475;-71
2021/03/05 00:52:30;;;;;;;38.00;16.87;;;6.10;93.40;;;;;;5053814;28;20200;-70
2021/03/05 00:54:56;;;;;;;38.90;17.63;;;6.10;93.60;;;;;;5040045;28;20979;-71
2021/03/05 00:57:21;;;;;;;42.37;18.30;;;6.10;93.50;;;;;;5033143;28;20207;-72
2021/03/05 00:59:47;;;;;;;44.53;19.27;;;6.00;93.70;;;;;;5032629;28;20477;-72
2021/03/05 01:02:13;;;;;;;43.43;18.30;;;5.90;94.20;;;;;;5045927;28;20579;-69
2021/03/05 01:04:39;;;;;;;47.23;20.70;;;5.90;94.20;;;;;;5045635;28;20188;-70
2021/03/05 01:07:05;;;;;;;46.67;20.20;;;5.70;94.30;;;;;;5040112;28;20414;-72
2021/03/05 01:09:30;;;;;;;58.07;21.50;;;5.50;94.90;;;;;;5043649;28;20201;-72
2021/03/05 01:11:56;;;;;;;46.40;20.57;;;5.40;95.40;;;;;;5032389;28;20215;-71
2021/03/05 01:14:22;;;;;;;46.33;20.37;;;5.30;95.50;;;;;;5046274;28;20211;-70
2021/03/05 01:16:48;;;;;;;50.40;20.97;;;5.30;95.50;;;;;;5040957;28;20184;-71
2021/03/05 01:19:14;;;;;;;50.20;22.37;;;5.30;95.60;;;;;;5029558;28;20456;-73
2021/03/05 01:21:40;;;;;;;53.83;21.13;;;5.40;95.50;;;;;;5034143;28;20200;-72
2021/03/05 01:24:08;;;;;;;46.03;20.33;;;5.20;94.50;;;;;;5045987;28;20498;-71
2021/03/05 01:26:34;;;;;;;52.73;21.07;;;5.00;94.80;;;;;;5035587;28;20868;-73
2021/03/05 01:29:00;;;;;;;55.90;22.20;;;5.00;95.00;;;;;;5038878;28;20428;-72
2021/03/05 01:31:26;;;;;;;57.83;22.83;;;4.90;94.80;;;;;;5044201;28;20546;-69
2021/03/05 01:33:52;;;;;;;61.97;24.10;;;4.80;95.20;;;;;;5043574;28;20480;-70
2021/03/05 01:36:18;;;;;;;50.30;21.37;;;4.80;95.60;;;;;;5038648;28;20427;-69
2021/03/05 01:38:44;;;;;;;53.33;23.53;;;4.90;95.60;;;;;;5039345;28;20431;-71
2021/03/05 01:41:10;;;;;;;51.07;20.10;;;4.90;94.80;;;;;;5037382;28;20443;-69
2021/03/05 01:43:38;;;;;;;46.73;20.40;;;4.80;94.80;;;;;;5043930;28;20422;-72
2021/03/05 01:46:05;;;;;;;53.87;20.83;;;4.80;94.70;;;;;;5049297;28;20546;-71
2021/03/05 01:48:31;;;;;;;54.23;22.40;;;4.80;95.00;;;;;;5050364;28;20435;-71
2021/03/05 01:51:06;;;;;;;53.60;21.97;;;4.80;95.30;;;;;;5044771;28;20444;-71
2021/03/05 01:53:32;;;;;;;57.60;20.60;;;4.80;95.40;;;;;;5048399;28;20471;-71
2021/03/05 01:55:58;;;;;;;55.93;21.60;;;4.80;95.20;;;;;;5046173;28;20518;-72
2021/03/05 01:58:24;;;;;;;57.63;21.33;;;4.80;95.50;;;;;;5044572;28;20455;-72
2021/03/05 02:00:54;;;;;;;55.27;22.13;;;4.80;95.80;;;;;;5019081;28;20466;-71
2021/03/05 02:03:19;;;;;;;61.50;22.37;;;4.90;96.30;;;;;;5031962;28;20927;-72
2021/03/05 02:05:45;;;;;;;58.70;22.50;;;4.80;96.20;;;;;;5043454;28;20516;-72
2021/03/05 02:08:13;;;;;;;56.53;22.83;;;4.60;95.70;;;;;;5043772;28;20438;-71
2021/03/05 02:10:40;;;;;;;63.47;22.67;;;4.60;96.20;;;;;;5035065;28;20427;-71
2021/03/05 02:13:06;;;;;;;61.13;22.60;;;4.60;96.20;;;;;;5025130;28;20533;-72
2021/03/05 02:15:34;;;;;;;54.07;22.60;;;4.50;96.20;;;;;;5049721;28;20423;-72
2021/03/05 02:18:22;;;;;;;49.97;21.23;;;4.60;96.40;;;;;;5035525;28;20927;-71
2021/03/05 02:21:07;;;;;;;61.87;23.40;;;4.60;96.30;;;;;;5030351;28;20467;-71
2021/03/05 02:23:45;;;;;;;59.87;24.17;;;4.60;96.20;;;;;;5029070;28;20420;-69
2021/03/05 02:26:34;;;;;;;55.90;20.87;;;4.50;95.50;;;;;;5028596;28;20444;-71
2021/03/05 02:29:17;;;;;;;59.07;22.90;;;4.50;95.80;;;;;;5029229;28;20424;-69
2021/03/05 02:31:49;;;;;;;59.80;22.33;;;4.50;95.90;;;;;;5028311;28;20447;-71
2021/03/05 02:34:22;;;;;;;63.00;22.83;;;4.40;95.70;;;;;;5042328;28;20815;-70
2021/03/05 02:36:53;;;;;;;64.30;22.50;;;4.40;95.90;;;;;;5038910;28;20788;-70
2021/03/05 02:39:58;;;;;;;52.57;19.07;;;4.60;96.30;;;;;;5037401;28;20455;-69
2021/03/05 02:42:28;;;;;;;51.23;20.00;;;4.60;96.10;;;;;;5037452;28;20435;-70
2021/03/05 02:45:17;;;;;;;48.23;19.67;;;4.60;95.80;;;;;;5037659;28;20424;-70
2021/03/05 02:47:46;;;;;;;55.47;20.50;;;4.60;95.20;;;;;;5027150;28;20442;-70
2021/03/05 02:50:18;;;;;;;50.67;20.30;;;4.50;95.10;;;;;;5028984;28;20444;-70
2021/03/05 02:52:46;;;;;;;66.20;22.17;;;4.40;95.00;;;;;;5043394;28;21036;-72
2021/03/05 02:55:13;;;;;;;56.33;21.60;;;4.30;95.60;;;;;;5047158;28;20414;-70
2021/03/05 02:57:45;;;;;;;58.97;19.87;;;4.30;95.60;;;;;;5054076;28;20765;-69
2021/03/05 03:00:12;;;;;;;57.07;18.97;;;4.30;95.60;;;;;;5051769;28;20965;-71
2021/03/05 03:02:39;;;;;;;55.13;20.80;;;4.30;95.70;;;;;;5052483;28;20474;-70
2021/03/05 03:05:05;;;;;;;49.40;20.90;;;4.40;95.60;;;;;;5037331;28;20513;-69
2021/03/05 03:07:33;;;;;;;49.30;20.40;;;4.30;95.40;;;;;;5033777;28;20403;-70
2021/03/05 03:09:59;;;;;;;48.17;21.33;;;4.20;95.70;;;;;;5030735;28;20780;-71
2021/03/05 03:12:26;;;;;;;51.20;18.97;;;4.20;95.90;;;;;;5024337;28;20432;-71
2021/03/05 03:14:52;;;;;;;57.20;20.83;;;4.20;95.90;;;;;;5050969;28;20442;-71
2021/03/05 03:17:18;;;;;;;49.57;19.97;;;4.20;95.80;;;;;;5047332;28;20426;-71
2021/03/05 03:19:49;;;;;;;59.40;21.90;;;4.20;95.90;;;;;;5036662;28;20509;-71
2021/03/05 03:22:16;;;;;;;53.38;20.58;;;4.20;95.80;;;;;;5044963;28;20531;-71
2021/03/05 03:24:44;;;;;;;40.63;18.60;;;4.20;95.90;;;;;;5047797;28;20531;-70
2021/03/05 03:27:10;;;;;;;58.07;21.33;;;4.30;96.10;;;;;;5044721;28;20505;-71
2021/03/05 03:29:36;;;;;;;45.27;18.57;;;4.50;95.80;;;;;;5042238;28;20410;-70
2021/03/05 03:32:02;;;;;;;44.93;17.67;;;4.50;95.50;;;;;;5055835;28;20484;-70
2021/03/05 03:34:28;;;;;;;45.43;18.90;;;4.50;95.40;;;;;;5055569;28;20215;-71
2021/03/05 03:36:56;;;;;;;53.40;20.37;;;4.40;95.20;;;;;;5044421;28;20419;-69
2021/03/05 03:39:24;;;;;;;39.97;18.33;;;4.40;95.20;;;;;;5037438;28;20463;-70
2021/03/05 03:41:50;;;;;;;41.13;15.97;;;4.40;95.30;;;;;;5049478;28;20496;-70
2021/03/05 03:44:16;;;;;;;41.87;17.40;;;4.40;95.30;;;;;;5055475;28;20410;-70
2021/03/05 03:46:48;;;;;;;46.03;16.60;;;4.50;95.20;;;;;;5041790;28;20430;-70
2021/03/05 03:49:32;;;;;;;41.27;17.30;;;4.60;95.30;;;;;;5034509;28;20197;-70
2021/03/05 03:52:06;;;;;;;43.03;18.60;;;4.60;95.00;;;;;;5045998;28;20579;-71
2021/03/05 03:54:33;;;;;;;47.30;20.40;;;4.60;94.80;;;;;;5042968;28;20560;-68
2021/03/05 03:57:02;;;;;;;43.37;18.43;;;4.40;94.70;;;;;;5050726;28;20431;-71
2021/03/05 03:59:32;;;;;;;49.60;21.07;;;4.40;95.30;;;;;;5042707;28;20473;-70
2021/03/05 04:01:58;;;;;;;45.07;19.30;;;4.40;95.60;;;;;;5035461;28;20537;-71
2021/03/05 04:04:26;;;;;;;44.20;18.67;;;4.40;95.70;;;;;;5032834;28;20862;-69
2021/03/05 04:06:53;;;;;;;38.17;17.70;;;4.50;95.70;;;;;;5047764;28;20416;-70
2021/03/05 04:09:20;;;;;;;41.93;17.07;;;4.40;95.80;;;;;;5036730;28;20506;-72
2021/03/05 04:11:55;;;;;;;37.73;15.97;;;4.40;95.80;;;;;;5021398;28;20444;-70
2021/03/05 04:14:23;;;;;;;33.30;14.97;;;4.30;95.90;;;;;;5042813;28;21119;-72
2021/03/05 04:16:51;;;;;;;36.37;15.83;;;4.30;95.90;;;;;;5042831;28;20454;-71
2021/03/05 04:19:17;;;;;;;39.83;14.93;;;4.30;95.90;;;;;;5051113;28;20466;-71
2021/03/05 04:21:43;;;;;;;42.67;17.40;;;4.30;96.00;;;;;;5041834;28;20450;-71
2021/03/05 04:24:10;;;;;;;40.30;16.27;;;4.30;96.10;;;;;;5057082;28;20439;-71
2021/03/05 04:26:36;;;;;;;39.57;15.77;;;4.20;96.10;;;;;;5043699;28;20449;-70
2021/03/05 04:29:01;;;;;;;32.27;14.70;;;4.30;96.20;;;;;;5043813;28;20423;-70
2021/03/05 04:31:27;;;;;;;32.80;14.30;;;4.10;96.00;;;;;;5049831;28;20216;-72
2021/03/05 04:33:52;;;;;;;38.37;14.87;;;4.00;96.20;;;;;;5048555;28;20566;-69
2021/03/05 04:36:18;;;;;;;40.97;15.83;;;3.90;96.30;;;;;;5038481;28;20288;-70
2021/03/05 04:38:44;;;;;;;34.83;15.07;;;3.80;96.70;;;;;;5043982;28;20185;-71
2021/03/05 04:41:10;;;;;;;33.60;14.03;;;3.80;97.20;;;;;;5043890;28;20230;-71
2021/03/05 04:43:35;;;;;;;39.33;15.37;;;3.90;97.30;;;;;;5045859;28;20193;-71
2021/03/05 04:46:01;;;;;;;40.07;14.63;;;3.80;97.30;;;;;;5039082;28;20268;-70
2021/03/05 04:48:27;;;;;;;33.50;14.47;;;3.80;97.10;;;;;;5041585;28;20181;-72
2021/03/05 04:50:53;;;;;;;39.73;15.57;;;3.90;97.30;;;;;;5046223;28;20671;-69
2021/03/05 04:53:19;;;;;;;34.80;15.30;;;3.90;97.40;;;;;;5044636;28;20463;-70
2021/03/05 04:55:44;;;;;;;32.47;14.37;;;3.90;97.50;;;;;;5045986;28;20435;-71
2021/03/05 04:58:10;;;;;;;31.70;13.60;;;4.00;97.50;;;;;;5044869;28;20980;-72
2021/03/05 05:00:36;;;;;;;34.63;13.77;;;3.90;97.10;;;;;;5036783;28;20294;-72
2021/03/05 05:03:02;;;;;;;32.20;15.10;;;4.00;97.20;;;;;;5046501;28;20262;-71
2021/03/05 05:05:28;;;;;;;33.77;14.43;;;4.10;97.20;;;;;;5043747;28;20192;-70
2021/03/05 05:07:56;;;;;;;37.30;14.47;;;4.00;97.00;;;;;;5054597;28;20181;-68
2021/03/05 05:10:23;;;;;;;31.90;14.37;;;4.10;97.00;;;;;;5027390;28;20201;-72
2021/03/05 05:12:49;;;;;;;33.17;14.50;;;4.00;96.80;;;;;;5047465;28;20469;-72
2021/03/05 05:15:15;;;;;;;35.43;15.37;;;4.10;97.00;;;;;;5041034;28;20803;-71
2021/03/05 05:17:41;;;;;;;34.20;14.37;;;4.10;96.70;;;;;;5041396;28;20192;-70
2021/03/05 05:20:08;;;;;;;33.50;13.07;;;4.10;96.40;;;;;;5033671;28;20464;-70
2021/03/05 05:22:35;;;;;;;26.63;11.93;;;4.10;96.20;;;;;;5035591;28;20271;-70
2021/03/05 05:25:02;;;;;;;28.60;12.83;;;4.10;96.00;;;;;;5030130;28;20428;-72
2021/03/05 05:27:28;;;;;;;26.27;13.27;;;4.10;95.60;;;;;;5032332;28;20466;-70
2021/03/05 05:29:53;;;;;;;35.93;14.13;;;4.10;95.70;;;;;;5039102;28;20934;-71
2021/03/05 05:32:19;;;;;;;27.40;11.87;;;4.10;95.70;;;;;;5035257;28;20209;-71
2021/03/05 05:34:45;;;;;;;27.33;12.17;;;4.10;95.70;;;;;;5030312;28;20238;-70
2021/03/05 05:37:10;;;;;;;32.30;13.87;;;4.00;95.70;;;;;;5049778;28;20219;-72
2021/03/05 05:39:36;;;;;;;29.50;13.17;;;4.00;95.90;;;;;;5051342;28;20215;-72
2021/03/05 05:42:05;;;;;;;31.37;12.60;;;4.10;96.00;;;;;;5033948;28;20209;-70
2021/03/05 05:44:31;;;;;;;32.87;12.73;;;4.10;96.00;;;;;;5030840;28;20432;-69
2021/03/05 05:46:59;;;;;;;26.90;11.37;;;4.10;96.00;;;;;;5029023;28;20526;-70
2021/03/05 05:49:26;;;;;;;29.67;11.70;;;4.10;95.80;;;;;;5030194;28;20272;-69
2021/03/05 05:51:54;;;;;;;33.63;11.90;;;4.10;95.70;;;;;;5029579;28;20655;-71
2021/03/05 05:54:22;;;;;;;32.23;12.43;;;4.10;95.70;;;;;;5029623;28;20434;-74
2021/03/05 05:56:47;;;;;;;31.93;13.33;;;4.20;95.80;;;;;;5030170;28;20427;-74
2021/03/05 05:59:13;;;;;;;27.80;12.20;;;4.20;95.50;;;;;;5030229;28;20468;-74
2021/03/05 06:01:42;;;;;;;25.47;12.10;;;4.30;95.40;;;;;;5030010;28;20943;-75
2021/03/05 06:04:08;;;;;;;29.43;11.30;;;4.30;95.10;;;;;;5029707;28;20420;-74
2021/03/05 06:06:36;;;;;;;25.80;10.93;;;4.30;95.00;;;;;;5045059;28;20426;-72
2021/03/05 06:09:03;;;;;;;25.90;12.03;;;4.20;94.20;;;;;;5049761;28;20430;-75
2021/03/05 06:11:40;;;;;;;27.20;11.70;;;4.20;94.40;;;;;;5021838;28;20480;-72
2021/03/05 06:14:10;;;;;;;25.90;12.30;;;4.20;94.50;;;;;;5040420;28;20440;-69
2021/03/05 06:16:56;;;;;;;26.97;12.40;;;4.20;94.30;;;;;;5037998;28;20919;-70
2021/03/05 06:19:25;;;;;;;26.87;11.13;;;4.10;94.80;;;;;;5041656;28;20467;-70
2021/03/05 06:21:51;;;;;;;26.97;12.00;;;4.10;95.00;;;;;;5051934;28;20826;-70
2021/03/05 06:24:17;;;;;;;30.47;11.70;;;4.20;95.00;;;;;;5047468;28;20442;-71
2021/03/05 06:26:58;;;;;;;27.97;11.40;;;4.20;94.90;;;;;;5033044;28;20428;-70
2021/03/05 06:29:44;;;;;;;29.40;13.03;;;4.30;94.90;;;;;;5046523;28;20456;-71
2021/03/05 06:32:12;;;;;;;25.33;10.80;;;4.20;94.40;;;;;;5051651;28;20462;-72
2021/03/05 06:34:45;;;;;;;31.13;12.20;;;4.10;94.50;;;;;;5045519;28;20431;-70
2021/03/05 06:37:12;;;;;;;26.80;11.40;;;4.10;95.10;;;;;;5030081;28;20465;-71
2021/03/05 06:39:38;;;;;;;26.57;11.10;;;4.10;94.90;;;;;;5036259;28;20553;-70
2021/03/05 06:42:07;;;;;;;32.60;11.50;;;4.10;94.80;;;;;;5049732;28;20445;-70
2021/03/05 06:44:37;;;;;;;29.63;11.87;;;4.00;95.00;;;;;;5044640;28;20415;-71
2021/03/05 06:47:14;;;;;;;25.63;11.23;;;3.90;94.90;;;;;;5029941;28;20439;-71
2021/03/05 06:49:41;;;;;;;30.50;11.63;;;4.00;95.30;;;;;;5027510;28;20450;-70
2021/03/05 06:52:08;;;;;;;29.80;12.20;;;4.10;95.30;;;;;;5036529;28;20448;-71
2021/03/05 06:54:36;;;;;;;27.07;11.63;;;4.10;95.20;;;;;;5041102;28;20480;-71
2021/03/05 06:57:04;;;;;;;30.37;11.27;;;4.20;95.20;;;;;;5053879;28;20420;-70
2021/03/05 06:59:37;;;;;;;29.07;11.50;;;4.20;94.90;;;;;;5044567;28;20474;-69
2021/03/05 07:02:05;;;;;;;35.20;12.83;;;4.10;94.80;;;;;;5035926;28;20490;-71
2021/03/05 07:04:51;;;;;;;25.33;10.03;;;4.10;94.90;;;;;;5046376;28;20427;-70
2021/03/05 07:07:19;;;;;;;55.10;12.80;;;4.10;94.80;;;;;;5045531;28;20420;-71
2021/03/05 07:09:46;;;;;;;25.47;10.20;;;4.10;94.70;;;;;;5047029;28;20423;-70
2021/03/05 07:12:14;;;;;;;35.60;11.97;;;4.00;94.70;;;;;;5019540;28;20455;-71
2021/03/05 07:14:42;;;;;;;31.70;11.60;;;4.00;94.60;;;;;;5031683;28;20493;-71
2021/03/05 07:17:09;;;;;;;26.63;11.27;;;3.90;94.90;;;;;;5049168;28;20427;-71
2021/03/05 07:19:36;;;;;;;30.40;11.13;;;4.00;95.00;;;;;;5048032;28;20466;-71
2021/03/05 07:22:04;;;;;;;27.90;12.00;;;4.00;95.10;;;;;;5047551;28;20450;-72
2021/03/05 07:24:31;;;;;;;32.07;12.70;;;4.10;95.10;;;;;;5049442;28;20424;-72
2021/03/05 07:27:00;;;;;;;27.43;11.77;;;4.10;94.90;;;;;;5049490;28;20422;-72
2021/03/05 07:29:43;;;;;;;31.53;11.90;;;4.10;94.80;;;;;;5045464;28;20509;-71
2021/03/05 07:32:11;;;;;;;31.97;11.87;;;4.10;94.80;;;;;;5027909;28;20550;-72
2021/03/05 07:35:01;;;;;;;29.23;12.43;;;4.10;94.70;;;;;;5045096;28;20426;-70
2021/03/05 07:37:32;;;;;;;28.27;11.27;;;4.20;94.90;;;;;;5037498;28;20435;-71
2021/03/05 07:40:03;;;;;;;27.80;11.03;;;4.30;94.60;;;;;;5033110;28;20522;-71
2021/03/05 07:42:32;;;;;;;28.50;11.00;;;4.40;94.60;;;;;;5034048;28;20432;-71
2021/03/05 07:44:58;;;;;;;26.40;11.30;;;4.40;94.30;;;;;;5043789;28;20435;-70
2021/03/05 07:47:25;;;;;;;32.70;12.37;;;4.30;93.50;;;;;;5039281;28;20781;-71
2021/03/05 07:49:57;;;;;;;28.93;12.13;;;4.40;93.50;;;;;;5033366;28;20483;-71
2021/03/05 07:52:24;;;;;;;37.37;14.43;;;4.30;93.70;;;;;;5037767;28;20450;-72
2021/03/05 07:54:50;;;;;;;30.20;11.60;;;4.40;93.80;;;;;;5051800;28;20519;-71
2021/03/05 07:57:19;;;;;;;27.73;11.07;;;4.30;93.30;;;;;;5050180;28;20423;-71
2021/03/05 07:59:52;;;;;;;26.50;12.10;;;4.20;93.60;;;;;;5042811;28;20482;-70
2021/03/05 08:02:19;;;;;;;33.33;12.70;;;4.30;94.00;;;;;;5033915;28;20444;-71
2021/03/05 08:04:55;;;;;;;30.30;12.17;;;4.30;93.90;;;;;;5035017;28;20420;-71
2021/03/05 08:07:26;;;;;;;31.30;11.60;;;4.40;93.50;;;;;;5038676;28;20422;-70
2021/03/05 08:09:53;;;;;;;28.97;11.53;;;4.40;93.40;;;;;;5048679;28;20429;-72
2021/03/05 08:12:38;;;;;;;28.70;11.37;;;4.30;93.10;;;;;;5019484;28;20443;-71
2021/03/05 08:15:12;;;;;;;29.20;10.43;;;4.20;93.30;;;;;;5045720;28;20452;-71
2021/03/05 08:17:42;;;;;;;28.33;10.87;;;4.10;93.40;;;;;;5044380;28;20437;-70
2021/03/05 08:20:28;;;;;;;31.70;12.60;;;4.10;93.90;;;;;;5022602;28;20456;-71
2021/03/05 08:23:01;;;;;;;26.93;11.50;;;4.10;93.90;;;;;;5026595;28;20459;-72
2021/03/05 08:25:35;;;;;;;32.40;11.43;;;4.00;93.50;;;;;;5042241;28;20434;-71
2021/03/05 08:28:03;;;;;;;24.77;11.07;;;4.00;94.00;;;;;;5032205;28;20423;-72
2021/03/05 08:30:29;;;;;;;28.17;12.20;;;4.10;93.60;;;;;;5035679;28;20426;-70
2021/03/05 08:33:07;;;;;;;28.87;12.03;;;4.20;93.60;;;;;;5049315;28;20448;-72
2021/03/05 08:35:37;;;;;;;27.27;10.50;;;4.20;93.30;;;;;;5045396;28;20211;-71
2021/03/05 08:38:06;;;;;;;27.10;11.10;;;4.40;93.70;;;;;;5035309;28;20812;-73
2021/03/05 08:40:37;;;;;;;30.77;12.47;;;4.60;93.40;;;;;;5042089;28;20473;-72
2021/03/05 08:43:22;;;;;;;34.87;11.10;;;4.60;92.40;;;;;;5036720;28;20590;-71
2021/03/05 08:45:55;;;;;;;27.00;10.50;;;4.60;92.40;;;;;;5050365;28;21009;-71
2021/03/05 08:48:27;;;;;;;25.73;10.40;;;4.60;92.00;;;;;;5036261;28;20443;-69
2021/03/05 08:50:59;;;;;;;28.80;11.13;;;4.80;92.10;;;;;;5050662;28;20431;-73
2021/03/05 08:53:25;;;;;;;27.90;10.57;;;4.70;91.80;;;;;;5049107;28;20812;-70
2021/03/05 08:55:53;;;;;;;28.80;10.80;;;4.70;91.90;;;;;;5041126;28;20431;-71
2021/03/05 08:58:19;;;;;;;22.73;10.63;;;4.40;91.30;;;;;;5042108;28;20652;-71
2021/03/05 09:00:45;;;;;;;26.53;10.97;;;4.30;92.70;;;;;;5041058;28;20470;-71
2021/03/05 09:03:18;;;;;;;31.30;11.17;;;4.30;93.10;;;;;;5041864;28;20687;-70
2021/03/05 09:05:47;;;;;;;28.07;11.40;;;4.40;93.40;;;;;;5045841;28;20789;-70
2021/03/05 09:08:15;;;;;;;31.80;10.97;;;4.50;93.30;;;;;;5048151;28;20930;-71
2021/03/05 09:10:55;;;;;;;27.60;11.83;;;4.40;92.90;;;;;;5026528;28;20468;-71
2021/03/05 09:13:25;;;;;;;26.93;10.93;;;4.50;93.20;;;;;;5028499;28;21096;-71
2021/03/05 09:15:59;;;;;;;31.40;10.63;;;4.50;92.80;;;;;;5042724;28;20446;-70
2021/03/05 09:18:36;;;;;;;24.20;9.60;;;4.50;91.70;;;;;;5034218;28;20475;-71
2021/03/05 09:21:06;;;;;;;24.00;9.80;;;4.60;91.30;;;;;;5026543;28;21027;-70
2021/03/05 09:23:37;;;;;;;24.50;9.87;;;4.60;91.00;;;;;;5041277;28;20411;-71
2021/03/05 09:26:16;;;;;;;23.47;10.17;;;4.60;91.10;;;;;;5039482;28;20416;-71
2021/03/05 09:28:49;;;;;;;23.03;10.17;;;4.40;90.50;;;;;;5046384;28;20903;-71
2021/03/05 09:31:23;;;;;;;24.87;9.30;;;4.50;90.80;;;;;;5049805;28;20424;-71
2021/03/05 09:33:49;;;;;;;27.20;10.13;;;4.50;91.00;;;;;;5045749;28;20440;-71
2021/03/05 09:36:17;;;;;;;23.13;9.10;;;4.70;91.30;;;;;;5025179;28;20467;-70
2021/03/05 09:38:46;;;;;;;21.10;8.70;;;4.80;90.50;;;;;;5049042;28;20423;-72
2021/03/05 09:41:20;;;;;;;23.97;10.73;;;4.90;89.30;;;;;;5038205;28;20561;-71
2021/03/05 09:44:03;;;;;;;23.67;10.03;;;4.80;88.90;;;;;;5053374;28;20434;-70
2021/03/05 09:46:34;;;;;;;21.77;9.40;;;4.90;89.60;;;;;;5043127;28;20431;-71
2021/03/05 09:49:23;;;;;;;27.17;9.57;;;4.90;88.70;;;;;;5048907;28;20824;-69
2021/03/05 09:51:49;;;;;;;23.03;9.17;;;4.80;88.70;;;;;;5047873;28;20870;-71
2021/03/05 09:54:15;;;;;;;23.23;9.67;;;4.60;89.20;;;;;;5041030;28;20427;-71
2021/03/05 09:56:44;;;;;;;22.37;9.40;;;4.70;90.10;;;;;;5038264;28;20189;-71
2021/03/05 09:59:10;;;;;;;21.90;9.90;;;4.70;89.60;;;;;;5049183;28;20469;-71
2021/03/05 10:01:43;;;;;;;19.40;9.63;;;4.70;90.00;;;;;;5033972;28;21139;-72
2021/03/05 10:04:11;;;;;;;25.20;9.53;;;4.70;89.90;;;;;;5043594;28;20447;-71
2021/03/05 10:06:37;;;;;;;21.90;9.03;;;4.60;89.70;;;;;;5046972;28;20485;-70
2021/03/05 10:09:08;;;;;;;26.60;10.10;;;4.70;90.00;;;;;;5033053;28;20424;-72
2021/03/05 10:11:44;;;;;;;27.33;8.43;;;4.70;89.70;;;;;;5018655;28;20448;-71
2021/03/05 10:14:28;;;;;;;22.70;9.00;;;4.90;90.40;;;;;;5040101;28;20423;-71
2021/03/05 10:16:53;;;;;;;23.10;9.27;;;5.10;89.60;;;;;;5038064;28;20505;-72
2021/03/05 10:19:21;;;;;;;20.40;9.20;;;5.20;87.70;;;;;;5039921;28;20531;-72
2021/03/05 10:21:50;;;;;;;26.43;9.63;;;5.30;87.00;;;;;;5038229;28;20200;-70
2021/03/05 10:24:18;;;;;;;18.40;8.70;;;5.40;86.20;;;;;;5038303;28;21088;-71
2021/03/05 10:27:11;;;;;;;24.47;9.57;;;5.40;86.50;;;;;;5045233;28;20922;-71
2021/03/05 10:29:42;;;;;;;23.93;10.00;;;5.30;86.50;;;;;;5034714;28;20419;-72
2021/03/05 10:32:19;;;;;;;23.30;9.40;;;5.30;86.60;;;;;;5040617;28;20923;-70
2021/03/05 10:34:49;;;;;;;19.53;8.80;;;5.30;86.80;;;;;;5042840;28;20431;-71
2021/03/05 10:37:16;;;;;;;28.10;9.80;;;5.30;87.40;;;;;;5044366;28;20442;-70
2021/03/05 10:39:43;;;;;;;24.83;10.10;;;5.30;86.30;;;;;;5018481;28;20474;-71
2021/03/05 10:42:14;;;;;;;24.00;9.03;;;5.20;87.00;;;;;;5026981;28;20455;-71
2021/03/05 10:44:41;;;;;;;21.33;8.70;;;5.20;86.80;;;;;;5044325;28;20442;-72
2021/03/05 10:47:12;;;;;;;30.60;11.67;;;5.20;86.80;;;;;;5046292;28;20476;-71
2021/03/05 10:49:40;;;;;;;22.33;9.07;;;5.30;86.00;;;;;;5038861;28;20438;-70
2021/03/05 10:52:07;;;;;;;22.70;9.27;;;5.40;85.20;;;;;;5038347;28;20448;-70
2021/03/05 10:54:33;;;;;;;23.43;10.37;;;5.40;85.50;;;;;;5043220;28;20510;-71
2021/03/05 10:56:59;;;;;;;22.10;9.80;;;5.10;86.30;;;;;;5046005;28;20434;-71
2021/03/05 10:59:26;;;;;;;19.30;8.77;;;4.90;86.60;;;;;;5029567;28;20459;-71
2021/03/05 11:01:53;;;;;;;23.27;10.00;;;4.80;86.80;;;;;;5032575;28;20443;-72
2021/03/05 11:04:24;;;;;;;23.27;9.47;;;4.90;86.20;;;;;;5039175;28;20416;-71
2021/03/05 11:06:50;;;;;;;18.77;9.33;;;4.90;85.50;;;;;;5044300;28;20495;-71
2021/03/05 11:09:21;;;;;;;19.53;8.70;;;4.90;84.90;;;;;;5040173;28;20442;-72
2021/03/05 11:11:47;;;;;;;19.00;9.20;;;5.20;85.60;;;;;;5019599;28;20962;-71
2021/03/05 11:14:14;;;;;;;27.80;10.80;;;5.40;84.70;;;;;;5029619;28;20420;-72
2021/03/05 11:16:40;;;;;;;21.17;9.77;;;5.60;84.10;;;;;;5049953;28;20454;-71
2021/03/05 11:19:06;;;;;;;31.90;10.13;;;5.70;83.30;;;;;;5035594;28;20516;-72
2021/03/05 11:21:32;;;;;;;26.70;10.60;;;5.70;83.00;;;;;;5032718;28;20439;-72
2021/03/05 11:23:59;;;;;;;23.03;10.00;;;5.70;81.90;;;;;;5043574;28;20506;-73
2021/03/05 11:26:25;;;;;;;22.43;9.93;;;5.50;82.20;;;;;;5054560;28;20415;-72
2021/03/05 11:28:52;;;;;;;27.17;11.23;;;5.40;83.30;;;;;;5042874;28;20466;-73
2021/03/05 11:31:18;;;;;;;19.57;9.87;;;5.50;84.70;;;;;;5046270;28;20424;-72
2021/03/05 11:33:44;;;;;;;19.63;9.33;;;5.60;85.00;;;;;;5043771;28;20421;-72
2021/03/05 11:36:14;;;;;;;29.07;11.80;;;5.60;84.60;;;;;;5039446;28;20427;-72
2021/03/05 11:38:44;;;;;;;24.43;10.10;;;5.50;83.70;;;;;;5042921;28;20420;-72
2021/03/05 11:41:10;;;;;;;23.80;10.03;;;5.40;82.80;;;;;;5041356;28;20463;-74
2021/03/05 11:43:48;;;;;;;24.23;9.50;;;5.50;82.20;;;;;;5033782;28;20790;-71
2021/03/05 11:46:15;;;;;;;25.37;9.80;;;5.60;81.40;;;;;;5022408;28;20404;-72
2021/03/05 11:48:41;;;;;;;23.70;9.90;;;5.50;81.10;;;;;;5046576;28;20442;-73
2021/03/05 11:51:08;;;;;;;21.07;9.90;;;5.30;82.10;;;;;;5039596;28;20761;-72
2021/03/05 11:53:34;;;;;;;25.03;10.20;;;5.30;82.50;;;;;;5037831;28;20431;-70
2021/03/05 11:56:00;;;;;;;21.63;9.80;;;5.40;82.20;;;;;;5038882;28;20418;-69
2021/03/05 11:58:26;;;;;;;22.23;9.87;;;5.50;81.90;;;;;;5040780;28;20412;-70
2021/03/05 12:00:52;;;;;;;21.37;9.30;;;5.40;81.10;;;;;;5046169;28;20208;-72
2021/03/05 12:03:17;;;;;;;25.93;10.50;;;5.40;80.60;;;;;;5048484;28;20224;-72
2021/03/05 12:05:43;;;;;;;25.20;11.13;;;5.40;80.20;;;;;;5042614;28;20259;-73
2021/03/05 12:08:09;;;;;;;26.93;10.47;;;5.20;81.40;;;;;;5042706;28;20243;-72
2021/03/05 12:10:35;;;;;;;27.93;10.77;;;5.10;82.50;;;;;;5028501;28;20259;-69
2021/03/05 12:13:01;;;;;;;27.93;11.13;;;5.10;82.10;;;;;;5026053;28;20201;-70
2021/03/05 12:15:27;;;;;;;24.53;9.93;;;5.20;82.20;;;;;;5044048;28;20802;-71
2021/03/05 12:17:52;;;;;;;21.83;10.07;;;5.30;82.50;;;;;;5044296;28;20655;-70
2021/03/05 12:20:18;;;;;;;27.63;10.10;;;5.40;82.10;;;;;;5020316;28;20467;-72
2021/03/05 12:22:44;;;;;;;24.47;10.57;;;5.60;82.20;;;;;;5032792;28;20205;-72
2021/03/05 12:25:10;;;;;;;19.93;9.13;;;5.80;81.50;;;;;;5042902;28;20177;-73
2021/03/05 12:27:36;;;;;;;21.37;9.83;;;5.80;80.20;;;;;;5032396;28;20212;-71
2021/03/05 12:30:03;;;;;;;23.20;10.87;;;5.80;80.50;;;;;;5044107;28;20853;-72
2021/03/05 12:32:29;;;;;;;25.97;9.90;;;5.80;78.90;;;;;;5045140;28;20212;-72
2021/03/05 12:34:55;;;;;;;21.63;9.50;;;5.70;78.60;;;;;;5038481;28;20518;-70
2021/03/05 12:37:20;;;;;;;24.73;9.00;;;5.70;79.30;;;;;;5038732;28;20231;-74
2021/03/05 12:39:46;;;;;;;21.20;8.80;;;5.70;79.60;;;;;;5044115;28;20209;-72
2021/03/05 12:42:12;;;;;;;26.83;10.80;;;5.60;79.60;;;;;;5028798;28;20310;-74
2021/03/05 12:44:39;;;;;;;22.37;9.77;;;5.60;80.60;;;;;;5042982;28;20224;-73
2021/03/05 12:47:04;;;;;;;28.47;11.27;;;5.70;80.50;;;;;;5032699;28;20443;-73